Current Conditions
Clear
Conditions



Pressure
1013.52 (hPa) - 29.93 (inHG)
Visibility

9.9 (miles) - 16.0 (km)
   Temperature
34  °F
Temperature
21  °F
Dewpoint
60  %
 Humidity
   Wind Speed
12  mph
10  kts
19  km/h
5.4  m/s
   Wind Direction
N
45°
E
90°
135°
S
180°
225°
W
270°
315°
 220°

South West
   Airport Data
KYIP
Willow Run Airport
Metar :KYIP 030753Z 22010KT 10SM CLR 01/M06 A2993 RMK AO2 SLP138 T00111056 $
Wed 3rd March 02:53 am
   Raw Metar Info
Raw METAR is the most common format in the world for the transmission of observational weather data. It is highly standardized through the International Civil Aviation Organization (ICAO), which allows it to be understood throughout most of the world.
   API Info
Data Provided by
https://www.checkwx.com/weather/KYIP

Aviation Weather providing METAR, TAF, AIRMET, SIGMET and OUTLOOK Weather Reports
   © Info
CSS/SVG/PHP scripts were developed by weather34.com for use in the weather34 template © 2015-2021

Guide Info provided by Metar-Wikipedia